Time;durP1;ratioP1;P1;durP2;ratioP2;P2;SDS_P1;SDS_P2;PMS_P1;PMS_P2;Temp;Humidity;BMP_temperature;BMP_pressure;BME280_temperature;BME280_humidity;BME280_pressure;Samples;Min_cycle;Max_cycle;Signal;HPM_P1;HPM_P2
2021/08/06 00:01:26;;;;;;;8.27;5.25;;;17.50;99.90;;;;;;5020481;28;20439;-68
2021/08/06 00:03:56;;;;;;;9.10;6.53;;;17.50;99.90;;;;;;5020479;28;20033;-68
2021/08/06 00:06:27;;;;;;;10.10;6.57;;;17.40;99.90;;;;;;5005782;28;21793;-68
2021/08/06 00:08:56;;;;;;;10.38;7.97;;;17.50;99.90;;;;;;5019823;28;20125;-68
2021/08/06 00:11:30;;;;;;;8.18;6.45;;;17.40;99.90;;;;;;5019565;28;20064;-68
2021/08/06 00:13:56;;;;;;;11.93;9.27;;;17.40;99.90;;;;;;5019238;28;20069;-68
2021/08/06 00:16:22;;;;;;;11.65;9.32;;;17.40;99.90;;;;;;5019851;28;20156;-68
2021/08/06 00:18:48;;;;;;;11.27;9.20;;;17.40;99.90;;;;;;5019603;28;20040;-68
2021/08/06 00:21:14;;;;;;;18.30;13.15;;;17.40;99.90;;;;;;5020018;28;20030;-68
2021/08/06 00:23:40;;;;;;;18.88;15.55;;;17.40;99.90;;;;;;5019741;28;20036;-68
2021/08/06 00:26:08;;;;;;;29.25;14.95;;;17.30;99.90;;;;;;5020944;28;20048;-69
2021/08/06 00:28:36;;;;;;;19.30;14.30;;;17.40;99.90;;;;;;5016091;28;20033;-68
2021/08/06 00:31:01;;;;;;;18.65;13.88;;;17.40;99.90;;;;;;5019839;28;20117;-68
2021/08/06 00:33:29;;;;;;;14.10;10.98;;;17.40;99.90;;;;;;5034223;28;20873;-68
2021/08/06 00:35:57;;;;;;;18.15;9.40;;;17.40;99.90;;;;;;5020638;28;20037;-68
2021/08/06 00:38:23;;;;;;;23.90;17.38;;;17.40;99.90;;;;;;5019394;28;20037;-68
2021/08/06 00:40:48;;;;;;;26.25;15.32;;;17.30;99.90;;;;;;5018681;28;20475;-68
2021/08/06 00:43:14;;;;;;;21.13;15.40;;;17.30;99.90;;;;;;5017237;28;20045;-68
2021/08/06 00:45:40;;;;;;;21.45;14.43;;;17.30;99.90;;;;;;5019231;28;20044;-68
2021/08/06 00:48:08;;;;;;;31.58;15.73;;;17.30;99.90;;;;;;5015797;28;20056;-68
2021/08/06 00:50:33;;;;;;;21.80;15.13;;;17.20;99.90;;;;;;5014296;28;20172;-68
2021/08/06 00:53:01;;;;;;;24.80;15.60;;;17.20;99.90;;;;;;5009033;28;20025;-68
2021/08/06 00:55:30;;;;;;;33.80;16.40;;;17.10;99.90;;;;;;5050527;28;20032;-68
2021/08/06 00:57:55;;;;;;;17.55;14.10;;;17.10;99.90;;;;;;5019656;28;20052;-68
2021/08/06 01:00:21;;;;;;;18.88;14.05;;;17.00;99.90;;;;;;5017196;28;20466;-68
2021/08/06 01:02:52;;;;;;;18.90;14.75;;;17.10;99.90;;;;;;5019647;28;20061;-68
2021/08/06 01:05:21;;;;;;;28.00;17.02;;;17.10;99.90;;;;;;5018541;28;20612;-68
2021/08/06 01:07:56;;;;;;;23.80;14.90;;;17.10;99.90;;;;;;5000608;28;20053;-68
2021/08/06 01:10:23;;;;;;;21.90;16.48;;;17.00;99.90;;;;;;5014504;28;20486;-68
2021/08/06 01:13:03;;;;;;;18.60;14.60;;;17.00;99.90;;;;;;5050412;28;20025;-68
2021/08/06 01:15:29;;;;;;;17.40;14.27;;;17.00;99.90;;;;;;5032027;28;20033;-68
2021/08/06 01:17:56;;;;;;;19.15;14.23;;;17.00;99.90;;;;;;5003503;28;20454;-68
2021/08/06 01:20:31;;;;;;;19.67;14.40;;;17.00;99.90;;;;;;5017232;28;20125;-68
2021/08/06 01:23:16;;;;;;;22.38;16.90;;;17.00;99.90;;;;;;5015236;28;20021;-68
2021/08/06 01:25:48;;;;;;;21.60;16.17;;;16.90;99.90;;;;;;5017982;28;20418;-68
2021/08/06 01:28:20;;;;;;;24.42;19.42;;;17.00;99.90;;;;;;5017832;28;20017;-68
2021/08/06 01:30:46;;;;;;;22.55;19.40;;;17.00;99.90;;;;;;5019431;28;20060;-68
2021/08/06 01:33:14;;;;;;;19.67;17.63;;;16.90;99.90;;;;;;5017128;28;20508;-68
2021/08/06 01:35:40;;;;;;;19.77;17.67;;;16.90;99.90;;;;;;5016990;28;20036;-68
2021/08/06 01:38:07;;;;;;;22.00;18.90;;;16.90;99.90;;;;;;5018301;28;20029;-69
2021/08/06 01:40:47;;;;;;;22.17;18.05;;;16.90;99.90;;;;;;5015472;28;20025;-69
2021/08/06 01:43:27;;;;;;;25.63;20.75;;;17.00;99.90;;;;;;5024687;28;20053;-69
2021/08/06 01:46:04;;;;;;;21.33;16.95;;;17.00;99.90;;;;;;5030588;28;20033;-68
2021/08/06 01:48:36;;;;;;;20.23;17.50;;;17.10;99.90;;;;;;5000282;28;20033;-68
2021/08/06 01:51:04;;;;;;;;;;;17.10;99.90;;;;;;5050651;28;20112;-68
2021/08/06 01:53:29;;;;;;;22.65;17.33;;;17.10;99.90;;;;;;5018313;28;19998;-69
2021/08/06 01:55:59;;;;;;;24.63;20.10;;;17.10;99.90;;;;;;5050325;28;20654;-68
2021/08/06 01:58:25;;;;;;;24.77;20.25;;;17.00;99.90;;;;;;5014907;28;20533;-69
2021/08/06 02:00:51;;;;;;;26.38;18.42;;;17.00;99.90;;;;;;5033058;28;20034;-69
2021/08/06 02:03:18;;;;;;;25.50;19.98;;;17.10;99.90;;;;;;5050073;28;20674;-69
2021/08/06 02:05:43;;;;;;;22.23;18.70;;;17.10;99.90;;;;;;5014735;28;20081;-69
2021/08/06 02:08:12;;;;;;;31.17;17.70;;;17.10;99.90;;;;;;5015285;28;20044;-68
2021/08/06 02:10:39;;;;;;;22.88;19.63;;;17.10;99.90;;;;;;5015355;28;20704;-68
2021/08/06 02:13:07;;;;;;;21.35;16.45;;;17.10;99.90;;;;;;5013554;28;21867;-69
2021/08/06 02:15:36;;;;;;;19.75;17.50;;;17.20;99.90;;;;;;5013806;28;20062;-69
2021/08/06 02:18:01;;;;;;;25.33;19.90;;;17.20;99.90;;;;;;5013741;28;20021;-70
2021/08/06 02:20:27;;;;;;;25.45;21.17;;;17.10;99.90;;;;;;5014012;28;20045;-70
2021/08/06 02:22:53;;;;;;;28.95;21.80;;;17.10;99.90;;;;;;5034690;28;20619;-70
2021/08/06 02:25:23;;;;;;;23.80;19.77;;;17.10;99.90;;;;;;5013387;28;20120;-70
2021/08/06 02:27:50;;;;;;;23.17;20.00;;;17.10;99.90;;;;;;5016574;28;20479;-70
2021/08/06 02:30:21;;;;;;;25.33;20.88;;;17.10;99.90;;;;;;5015318;28;20044;-70
2021/08/06 02:32:49;;;;;;;29.50;20.48;;;17.10;99.90;;;;;;5015867;28;20029;-69
2021/08/06 02:35:15;;;;;;;40.03;21.45;;;17.10;99.90;;;;;;5035001;28;20041;-70
2021/08/06 02:37:44;;;;;;;24.90;20.33;;;17.00;99.90;;;;;;5012901;28;20029;-70
2021/08/06 02:40:12;;;;;;;31.73;22.45;;;17.10;99.90;;;;;;5019133;28;20037;-70
2021/08/06 02:42:38;;;;;;;44.72;22.05;;;17.10;99.90;;;;;;5021116;28;20026;-70
2021/08/06 02:45:07;;;;;;;29.13;21.48;;;17.00;99.90;;;;;;5020095;28;20037;-70
2021/08/06 02:47:33;;;;;;;27.50;21.35;;;17.10;99.90;;;;;;5019745;28;20033;-70
2021/08/06 02:50:01;;;;;;;30.88;20.85;;;17.00;99.90;;;;;;5021355;28;20375;-70
2021/08/06 02:52:26;;;;;;;39.40;21.25;;;16.90;99.90;;;;;;5021060;28;20037;-70
2021/08/06 02:54:52;;;;;;;37.83;23.05;;;17.00;99.90;;;;;;5021823;28;20367;-70
2021/08/06 02:57:17;;;;;;;29.92;20.80;;;17.00;99.90;;;;;;5022103;28;20072;-69
2021/08/06 02:59:43;;;;;;;25.30;19.92;;;17.00;99.90;;;;;;5036018;28;20394;-69
2021/08/06 03:02:11;;;;;;;27.48;19.23;;;17.00;99.90;;;;;;5019550;28;20028;-70
2021/08/06 03:04:39;;;;;;;28.80;21.67;;;16.90;99.90;;;;;;5016995;28;21768;-70
2021/08/06 03:07:04;;;;;;;23.38;19.20;;;17.00;99.90;;;;;;5021481;28;20033;-70
2021/08/06 03:09:30;;;;;;;32.13;22.20;;;17.00;99.90;;;;;;5019975;28;20037;-70
2021/08/06 03:11:56;;;;;;;26.20;20.95;;;17.00;99.90;;;;;;5052927;28;20068;-70
2021/08/06 03:14:21;;;;;;;35.88;23.27;;;17.00;99.90;;;;;;5020946;28;20057;-69
2021/08/06 03:16:49;;;;;;;26.38;21.08;;;16.90;99.90;;;;;;5025342;28;20087;-69
2021/08/06 03:19:17;;;;;;;24.35;20.25;;;16.90;99.90;;;;;;5020607;28;20140;-70
2021/08/06 03:21:45;;;;;;;33.88;21.02;;;16.90;99.90;;;;;;5020575;28;20096;-69
2021/08/06 03:24:13;;;;;;;30.38;21.55;;;17.00;99.90;;;;;;5019334;28;20029;-70
2021/08/06 03:26:41;;;;;;;28.25;20.95;;;16.90;99.90;;;;;;5002794;28;20033;-70
2021/08/06 03:29:07;;;;;;;28.50;21.52;;;17.00;99.90;;;;;;5020843;28;21827;-69
2021/08/06 03:31:35;;;;;;;29.33;22.05;;;16.90;99.90;;;;;;5021527;28;20075;-69
2021/08/06 03:34:00;;;;;;;25.05;21.30;;;16.80;99.90;;;;;;5020926;28;20047;-70
2021/08/06 03:36:31;;;;;;;30.30;21.80;;;16.90;99.90;;;;;;5035656;28;20033;-70
2021/08/06 03:38:56;;;;;;;49.65;22.95;;;16.80;99.90;;;;;;5014978;28;20196;-70
2021/08/06 03:41:23;;;;;;;43.90;23.08;;;16.90;99.90;;;;;;5020232;28;20131;-70
2021/08/06 03:43:48;;;;;;;53.40;22.70;;;16.90;99.90;;;;;;5020216;28;20467;-69
2021/08/06 03:46:16;;;;;;;100.57;24.33;;;16.90;99.90;;;;;;5024954;28;20025;-69
2021/08/06 03:48:42;;;;;;;34.38;20.10;;;16.90;99.90;;;;;;5020736;28;20053;-70
2021/08/06 03:51:08;;;;;;;31.98;20.95;;;16.90;99.90;;;;;;5020116;28;20290;-69
2021/08/06 03:53:33;;;;;;;38.75;20.20;;;16.90;99.90;;;;;;5005337;28;20029;-70
2021/08/06 03:56:06;;;;;;;53.58;20.85;;;16.90;99.90;;;;;;5027234;28;20037;-69
2021/08/06 03:58:32;;;;;;;46.42;19.15;;;16.90;99.90;;;;;;5015723;28;20049;-69
2021/08/06 04:00:57;;;;;;;31.20;19.70;;;16.90;99.90;;;;;;5018891;28;20463;-68
2021/08/06 04:03:25;;;;;;;22.13;16.48;;;17.00;99.90;;;;;;5020830;28;20033;-68
2021/08/06 04:05:51;;;;;;;25.10;16.65;;;16.80;99.90;;;;;;5003848;28;20164;-68
2021/08/06 04:08:16;;;;;;;20.63;15.43;;;16.80;99.90;;;;;;5018498;28;20033;-70
2021/08/06 04:10:42;;;;;;;25.48;14.40;;;16.80;99.90;;;;;;5021016;28;20366;-68
2021/08/06 04:13:08;;;;;;;19.95;13.63;;;16.80;99.90;;;;;;5019181;28;20060;-68
2021/08/06 04:15:33;;;;;;;16.77;12.57;;;16.90;99.90;;;;;;5020085;28;20038;-68
2021/08/06 04:18:06;;;;;;;13.30;10.68;;;16.80;99.90;;;;;;5019509;28;20458;-67
2021/08/06 04:20:32;;;;;;;16.83;11.60;;;16.80;99.90;;;;;;5019677;28;20112;-67
2021/08/06 04:23:00;;;;;;;14.85;12.48;;;16.80;99.90;;;;;;5019845;28;20056;-68
2021/08/06 04:25:25;;;;;;;14.85;12.10;;;16.60;99.90;;;;;;5001061;28;20056;-68
2021/08/06 04:27:51;;;;;;;14.13;11.77;;;16.70;99.90;;;;;;5020509;28;20172;-68
2021/08/06 04:30:19;;;;;;;15.38;12.32;;;16.70;99.90;;;;;;5014908;28;20033;-68
2021/08/06 04:32:44;;;;;;;15.32;12.38;;;16.60;99.90;;;;;;5017930;28;20034;-67
2021/08/06 04:35:12;;;;;;;13.23;10.65;;;16.70;99.90;;;;;;5020201;28;20340;-68
2021/08/06 04:37:51;;;;;;;13.82;10.38;;;16.60;99.90;;;;;;5020375;28;20022;-68
2021/08/06 04:40:20;;;;;;;10.80;9.23;;;16.70;99.90;;;;;;5013110;28;20057;-68
2021/08/06 04:42:48;;;;;;;12.23;8.80;;;16.60;99.90;;;;;;5008242;28;20057;-68
2021/08/06 04:45:16;;;;;;;10.15;8.38;;;16.70;99.90;;;;;;5019792;28;20033;-68
2021/08/06 04:47:45;;;;;;;11.05;8.88;;;16.60;99.90;;;;;;5018443;28;20021;-68
2021/08/06 04:50:12;;;;;;;12.02;8.88;;;16.60;99.90;;;;;;5020347;28;20483;-68
2021/08/06 04:52:37;;;;;;;9.93;8.15;;;16.70;99.90;;;;;;5015623;28;20038;-68
2021/08/06 04:55:06;;;;;;;9.73;7.63;;;16.70;99.90;;;;;;5020983;28;20651;-68
2021/08/06 04:57:33;;;;;;;11.98;7.75;;;16.70;99.90;;;;;;5036709;28;20131;-68
2021/08/06 05:00:01;;;;;;;12.65;8.88;;;16.70;99.90;;;;;;5052384;28;20132;-68
2021/08/06 05:02:27;;;;;;;9.60;7.53;;;16.80;99.90;;;;;;5020620;28;20593;-68
2021/08/06 05:04:52;;;;;;;8.10;6.70;;;16.70;99.90;;;;;;5033209;28;20033;-67
2021/08/06 05:07:18;;;;;;;9.57;6.63;;;16.70;99.90;;;;;;5018729;28;20025;-68
2021/08/06 05:09:45;;;;;;;8.48;5.63;;;16.70;99.90;;;;;;5049983;28;20593;-68
2021/08/06 05:12:13;;;;;;;10.60;6.22;;;16.70;99.90;;;;;;5015961;28;20045;-68
2021/08/06 05:14:40;;;;;;;8.50;6.10;;;16.70;99.90;;;;;;5012746;28;20042;-68
2021/08/06 05:17:06;;;;;;;7.05;5.55;;;16.60;99.90;;;;;;5003513;28;20026;-67
2021/08/06 05:19:34;;;;;;;7.32;5.28;;;16.70;99.90;;;;;;5019470;28;20025;-68
2021/08/06 05:21:59;;;;;;;6.38;4.57;;;16.60;99.90;;;;;;5019572;28;20034;-67
2021/08/06 05:24:30;;;;;;;8.88;5.20;;;16.60;99.90;;;;;;5050322;28;20026;-68
2021/08/06 05:26:57;;;;;;;6.32;4.40;;;16.70;99.90;;;;;;5003978;28;20034;-67
2021/08/06 05:29:23;;;;;;;6.03;4.40;;;16.70;99.90;;;;;;5018394;28;20520;-68
2021/08/06 05:31:49;;;;;;;5.40;3.88;;;16.60;99.90;;;;;;5035459;28;20074;-68
2021/08/06 05:34:14;;;;;;;9.32;5.60;;;16.70;99.90;;;;;;5012751;28;20067;-68
2021/08/06 05:36:42;;;;;;;6.28;4.43;;;16.70;99.90;;;;;;5018814;28;20037;-68
2021/08/06 05:39:08;;;;;;;7.13;4.90;;;16.70;99.90;;;;;;5034876;28;20064;-68
2021/08/06 05:41:36;;;;;;;7.93;4.25;;;16.80;99.90;;;;;;5050460;28;20888;-69
2021/08/06 05:44:04;;;;;;;6.43;4.50;;;16.80;99.90;;;;;;5018737;28;20057;-67
2021/08/06 05:46:32;;;;;;;10.82;7.45;;;16.90;99.90;;;;;;5034947;28;20371;-67
2021/08/06 05:49:02;;;;;;;6.65;4.88;;;16.80;99.90;;;;;;5001349;28;20025;-69
2021/08/06 05:51:27;;;;;;;11.00;8.85;;;16.70;99.90;;;;;;5019356;28;20064;-68
2021/08/06 05:53:55;;;;;;;10.18;8.10;;;16.70;99.90;;;;;;5018468;28;20033;-69
2021/08/06 05:56:23;;;;;;;14.02;10.70;;;16.70;99.90;;;;;;5018949;28;20340;-69
2021/08/06 05:58:49;;;;;;;13.32;10.93;;;16.70;99.90;;;;;;5017954;28;20049;-69
2021/08/06 06:01:17;;;;;;;12.55;10.25;;;16.70;99.90;;;;;;5018403;28;20040;-70
2021/08/06 06:03:45;;;;;;;10.73;9.57;;;16.70;99.90;;;;;;5018144;28;20030;-67
2021/08/06 06:06:11;;;;;;;15.10;11.77;;;16.70;99.90;;;;;;5016979;28;20189;-66
2021/08/06 06:08:36;;;;;;;17.83;12.25;;;16.70;99.90;;;;;;5017211;28;20504;-69
2021/08/06 06:11:02;;;;;;;11.30;9.98;;;16.70;99.90;;;;;;5016254;28;20045;-69
2021/08/06 06:13:30;;;;;;;16.52;11.45;;;16.70;99.90;;;;;;5016892;28;20669;-69
2021/08/06 06:15:56;;;;;;;13.98;9.68;;;16.60;99.90;;;;;;5020361;28;20115;-69
2021/08/06 06:18:21;;;;;;;12.32;10.20;;;16.70;99.90;;;;;;5020853;28;20033;-69
2021/08/06 06:20:47;;;;;;;13.13;10.57;;;16.70;99.90;;;;;;5052830;28;20041;-68
2021/08/06 06:23:13;;;;;;;11.73;10.50;;;16.70;99.90;;;;;;5016645;28;20526;-69
2021/08/06 06:25:41;;;;;;;12.95;11.55;;;16.70;99.90;;;;;;5018444;28;20672;-71
2021/08/06 06:28:07;;;;;;;12.18;10.88;;;16.70;99.90;;;;;;5020885;28;20037;-68
2021/08/06 06:30:33;;;;;;;16.95;15.13;;;16.70;99.90;;;;;;5017503;28;20048;-70
2021/08/06 06:33:01;;;;;;;23.75;17.02;;;16.60;99.90;;;;;;5016065;28;20369;-69
2021/08/06 06:35:27;;;;;;;20.77;16.60;;;16.60;99.90;;;;;;5020910;28;20037;-69
2021/08/06 06:37:53;;;;;;;17.52;15.60;;;16.60;99.90;;;;;;5015287;28;20030;-69
2021/08/06 06:40:24;;;;;;;19.33;16.42;;;16.60;99.90;;;;;;5019969;28;20481;-69
2021/08/06 06:42:52;;;;;;;11.65;10.50;;;16.70;99.90;;;;;;5019736;28;20029;-69
2021/08/06 06:45:18;;;;;;;26.30;19.63;;;16.70;99.90;;;;;;5018891;28;20179;-69
2021/08/06 06:47:45;;;;;;;19.27;17.23;;;16.60;99.90;;;;;;5020612;28;21410;-70
2021/08/06 06:50:13;;;;;;;17.90;16.13;;;16.50;99.90;;;;;;5018328;28;20040;-69
2021/08/06 06:52:42;;;;;;;21.23;18.98;;;16.50;99.90;;;;;;5019322;28;20033;-70
2021/08/06 06:55:08;;;;;;;19.00;17.02;;;16.60;99.90;;;;;;5020427;28;20465;-70
2021/08/06 06:58:02;;;;;;;20.95;18.63;;;16.60;99.90;;;;;;5020867;28;20787;-70
2021/08/06 07:00:30;;;;;;;21.35;16.70;;;16.60;99.90;;;;;;5019382;28;20104;-70
2021/08/06 07:02:55;;;;;;;16.50;14.88;;;16.70;99.90;;;;;;5020068;28;20073;-69
2021/08/06 07:05:21;;;;;;;15.40;13.90;;;16.60;99.90;;;;;;5021026;28;20176;-70
2021/08/06 07:07:51;;;;;;;15.18;13.77;;;16.70;99.90;;;;;;5019876;28;20060;-69
2021/08/06 07:10:17;;;;;;;16.58;14.88;;;16.70;99.90;;;;;;5019661;28;20651;-69
2021/08/06 07:12:43;;;;;;;15.73;14.13;;;16.70;99.90;;;;;;5019964;28;20029;-69
2021/08/06 07:15:09;;;;;;;24.48;16.10;;;16.70;99.90;;;;;;5015439;28;20080;-70
2021/08/06 07:17:35;;;;;;;27.55;17.63;;;16.80;99.90;;;;;;5036602;28;20041;-69
2021/08/06 07:20:01;;;;;;;18.25;15.70;;;16.80;99.90;;;;;;5014694;28;20052;-69
2021/08/06 07:22:27;;;;;;;15.18;13.65;;;16.70;99.90;;;;;;5015352;28;20033;-69
2021/08/06 07:24:53;;;;;;;16.75;14.95;;;16.60;99.90;;;;;;5015324;28;20040;-69
2021/08/06 07:27:18;;;;;;;18.38;16.25;;;16.60;99.90;;;;;;5018838;28;20018;-69
2021/08/06 07:29:44;;;;;;;17.02;14.65;;;16.70;99.90;;;;;;5018099;28;20071;-68
2021/08/06 07:32:12;;;;;;;16.30;14.60;;;16.80;99.90;;;;;;5020114;28;20364;-69
2021/08/06 07:34:37;;;;;;;17.20;15.40;;;16.80;99.90;;;;;;5020549;28;20060;-69
2021/08/06 07:37:03;;;;;;;17.20;14.95;;;16.80;99.90;;;;;;5014047;28;20121;-69
2021/08/06 07:39:31;;;;;;;16.85;14.98;;;16.80;99.90;;;;;;5020089;28;20033;-70
2021/08/06 07:41:56;;;;;;;19.05;14.95;;;16.90;99.90;;;;;;5019855;28;20113;-71
2021/08/06 07:44:24;;;;;;;14.75;13.27;;;16.90;99.90;;;;;;5018713;28;20520;-70
2021/08/06 07:46:53;;;;;;;15.93;14.18;;;16.90;99.90;;;;;;5020122;28;20120;-71
2021/08/06 07:49:18;;;;;;;17.25;14.60;;;16.90;99.90;;;;;;5018643;28;20029;-71
2021/08/06 07:51:44;;;;;;;15.30;13.90;;;16.90;99.90;;;;;;5019286;28;20052;-71
2021/08/06 07:54:12;;;;;;;15.57;13.85;;;17.00;99.90;;;;;;5019591;28;20351;-71
2021/08/06 07:56:37;;;;;;;15.30;12.70;;;17.00;99.90;;;;;;5018405;28;20099;-70
2021/08/06 07:59:03;;;;;;;14.52;13.15;;;17.10;99.90;;;;;;5019451;28;20049;-69
2021/08/06 08:01:31;;;;;;;14.40;13.00;;;17.10;99.90;;;;;;5014288;28;20029;-70
2021/08/06 08:03:57;;;;;;;16.02;14.05;;;17.10;99.90;;;;;;5018514;28;20033;-69
2021/08/06 08:06:22;;;;;;;17.50;13.63;;;17.10;99.90;;;;;;5019893;28;20044;-70
2021/08/06 08:08:50;;;;;;;14.02;12.73;;;17.30;99.90;;;;;;5018765;28;20079;-70
2021/08/06 08:11:16;;;;;;;15.75;11.93;;;17.30;99.90;;;;;;5019524;28;20041;-70
2021/08/06 08:13:41;;;;;;;13.18;11.30;;;17.30;99.90;;;;;;5015014;28;20344;-70
2021/08/06 08:16:10;;;;;;;15.15;11.10;;;17.40;99.90;;;;;;5018903;28;20715;-70
2021/08/06 08:18:38;;;;;;;12.80;11.55;;;17.40;99.90;;;;;;5012933;28;20071;-71
2021/08/06 08:21:06;;;;;;;12.88;11.55;;;17.50;99.90;;;;;;5049325;28;20455;-70
2021/08/06 08:23:36;;;;;;;12.30;11.05;;;17.60;99.90;;;;;;5012877;28;20160;-71
2021/08/06 08:26:02;;;;;;;12.77;11.50;;;17.60;99.90;;;;;;5018765;28;20025;-70
2021/08/06 08:28:27;;;;;;;11.25;10.18;;;17.70;99.90;;;;;;5019699;28;20075;-71
2021/08/06 08:30:55;;;;;;;12.45;11.15;;;17.80;99.90;;;;;;5004247;28;20045;-71
2021/08/06 08:33:26;;;;;;;10.95;9.95;;;17.90;99.90;;;;;;5014497;28;20120;-72
2021/08/06 08:35:52;;;;;;;12.15;10.43;;;17.90;99.90;;;;;;5019359;28;20115;-72
2021/08/06 08:38:18;;;;;;;13.27;10.82;;;18.00;99.90;;;;;;5017651;28;20030;-72
2021/08/06 08:40:43;;;;;;;12.40;10.60;;;18.00;99.90;;;;;;5018124;28;20030;-70
2021/08/06 08:43:09;;;;;;;9.10;8.13;;;18.10;99.90;;;;;;5051253;28;20033;-69
2021/08/06 08:45:39;;;;;;;7.32;6.30;;;18.10;99.90;;;;;;5050264;28;20076;-69
2021/08/06 08:48:07;;;;;;;8.60;7.00;;;17.90;99.90;;;;;;5024237;28;20022;-73
2021/08/06 08:50:37;;;;;;;7.68;6.78;;;18.00;99.90;;;;;;5036457;28;20033;-70
2021/08/06 08:53:04;;;;;;;7.65;5.93;;;18.00;99.90;;;;;;5013306;28;20029;-70
2021/08/06 08:55:32;;;;;;;7.53;5.78;;;17.90;99.90;;;;;;5033553;28;20057;-71
2021/08/06 08:57:58;;;;;;;7.38;5.40;;;18.00;99.90;;;;;;5050246;28;20076;-71
2021/08/06 09:00:23;;;;;;;6.32;5.10;;;18.00;99.90;;;;;;5033520;28;20112;-71
2021/08/06 09:02:49;;;;;;;7.65;5.15;;;18.00;99.90;;;;;;5018799;28;20057;-71
2021/08/06 09:05:24;;;;;;;6.25;4.10;;;18.10;99.90;;;;;;5018634;28;20459;-71
2021/08/06 09:07:50;;;;;;;5.10;3.70;;;18.10;99.90;;;;;;5048531;28;20037;-72
2021/08/06 09:10:29;;;;;;;6.50;4.07;;;18.10;99.90;;;;;;5019272;28;20353;-71
2021/08/06 09:12:56;;;;;;;5.90;3.67;;;18.20;99.90;;;;;;5018343;28;20650;-70
2021/08/06 09:15:43;;;;;;;6.32;3.90;;;18.10;99.90;;;;;;5019567;28;20351;-71
2021/08/06 09:18:29;;;;;;;6.35;4.30;;;18.10;99.90;;;;;;5013958;28;20037;-71
2021/08/06 09:21:19;;;;;;;7.00;3.80;;;18.20;99.90;;;;;;5017605;28;20037;-71
2021/08/06 09:23:55;;;;;;;4.88;3.40;;;18.10;99.90;;;;;;5018051;28;20036;-71
2021/08/06 09:26:27;;;;;;;5.90;4.00;;;18.10;99.90;;;;;;5006827;28;20033;-71
2021/08/06 09:29:09;;;;;;;5.43;3.58;;;18.10;99.90;;;;;;5019169;28;20120;-71
2021/08/06 09:31:39;;;;;;;6.35;4.00;;;18.10;99.90;;;;;;5017458;28;20037;-71
2021/08/06 09:34:24;;;;;;;6.55;3.63;;;18.10;99.90;;;;;;5048926;28;20042;-71
2021/08/06 09:37:00;;;;;;;4.63;3.50;;;18.20;99.90;;;;;;5017504;28;20478;-71
2021/08/06 09:39:48;;;;;;;4.50;2.92;;;18.40;99.90;;;;;;5018073;28;20038;-72
2021/08/06 09:42:17;;;;;;;7.35;3.30;;;18.40;99.90;;;;;;5045457;28;20029;-72
2021/08/06 09:44:42;;;;;;;5.00;3.30;;;18.60;99.90;;;;;;5018850;28;20044;-72
2021/08/06 09:47:19;;;;;;;5.65;3.30;;;18.60;99.90;;;;;;5014770;28;20026;-73
2021/08/06 09:49:46;;;;;;;7.78;3.13;;;18.50;99.90;;;;;;5016960;28;20036;-72
2021/08/06 09:52:12;;;;;;;5.85;3.15;;;18.60;99.90;;;;;;5017342;28;20109;-72
2021/08/06 09:54:38;;;;;;;5.53;3.22;;;18.60;99.90;;;;;;5015767;28;20029;-71
2021/08/06 09:57:05;;;;;;;5.47;2.85;;;18.70;99.90;;;;;;5023053;28;20467;-71
2021/08/06 09:59:32;;;;;;;5.97;3.50;;;18.70;99.90;;;;;;5006519;28;20049;-72
2021/08/06 10:02:16;;;;;;;5.00;3.38;;;18.80;99.90;;;;;;5017182;28;20834;-71
2021/08/06 10:04:57;;;;;;;6.28;3.20;;;18.80;99.90;;;;;;5031485;28;21945;-72
2021/08/06 10:07:25;;;;;;;5.07;3.03;;;18.90;99.90;;;;;;5011545;28;20413;-72
2021/08/06 10:09:50;;;;;;;5.43;2.80;;;19.00;99.90;;;;;;5032590;28;20041;-71
2021/08/06 10:12:16;;;;;;;4.85;2.75;;;19.00;99.90;;;;;;5017608;28;20037;-71
2021/08/06 10:14:44;;;;;;;6.40;3.00;;;19.20;99.90;;;;;;5020914;28;20033;-71
2021/08/06 10:17:10;;;;;;;5.68;2.88;;;19.30;99.90;;;;;;5017137;28;20048;-71
2021/08/06 10:19:36;;;;;;;6.07;2.83;;;19.40;99.90;;;;;;5048682;28;20057;-71
2021/08/06 10:22:03;;;;;;;4.45;2.80;;;19.40;99.90;;;;;;5016832;28;20113;-71
2021/08/06 10:24:31;;;;;;;3.72;2.50;;;19.50;99.90;;;;;;5016875;28;20037;-71
2021/08/06 10:26:58;;;;;;;5.45;2.63;;;19.50;99.90;;;;;;5034361;28;20029;-71
2021/08/06 10:29:23;;;;;;;5.63;2.50;;;19.50;99.90;;;;;;5012003;28;20041;-71
2021/08/06 10:32:25;;;;;;;4.45;2.10;;;19.40;99.90;;;;;;5000958;28;20041;-71
2021/08/06 10:35:03;;;;;;;3.60;2.40;;;19.40;99.90;;;;;;4989626;28;20037;-71
2021/08/06 10:37:50;;;;;;;4.78;2.40;;;19.50;99.90;;;;;;5016928;28;20119;-71
2021/08/06 10:40:35;;;;;;;5.55;2.30;;;19.60;99.90;;;;;;5016937;28;20029;-71
2021/08/06 10:43:36;;;;;;;3.85;2.00;;;19.60;99.90;;;;;;5017264;28;20056;-71
2021/08/06 10:46:02;;;;;;;4.75;2.35;;;19.50;99.90;;;;;;5015524;28;20050;-71
2021/08/06 10:48:35;;;;;;;4.65;2.40;;;19.50;99.90;;;;;;5011132;28;20030;-70
2021/08/06 10:51:15;;;;;;;3.80;2.30;;;19.50;99.90;;;;;;5016482;28;20076;-70
2021/08/06 10:53:59;;;;;;;4.30;2.30;;;19.50;99.90;;;;;;5016963;28;20022;-71
2021/08/06 10:56:25;;;;;;;4.97;2.10;;;19.50;99.90;;;;;;5044831;28;20108;-70
2021/08/06 10:58:53;;;;;;;5.82;2.80;;;19.50;99.90;;;;;;5018037;28;20045;-69
2021/08/06 11:01:28;;;;;;;5.68;3.00;;;19.50;99.90;;;;;;5016447;28;20030;-69
2021/08/06 11:04:05;;;;;;;4.93;3.08;;;19.50;99.90;;;;;;5020229;28;20413;-70
2021/08/06 11:06:34;;;;;;;5.38;2.60;;;19.30;99.90;;;;;;5032791;28;20034;-69
2021/08/06 11:09:00;;;;;;;5.95;2.75;;;19.30;99.90;;;;;;5020290;28;21566;-69
2021/08/06 11:11:51;;;;;;;6.00;2.90;;;19.40;99.90;;;;;;5020474;28;20461;-69
2021/08/06 11:14:18;;;;;;;4.72;2.67;;;19.50;99.90;;;;;;5020390;28;20025;-69
2021/08/06 11:17:06;;;;;;;4.65;2.70;;;19.50;99.90;;;;;;5019663;28;20332;-69
2021/08/06 11:19:33;;;;;;;7.43;3.10;;;19.80;99.90;;;;;;5020503;28;20049;-69
2021/08/06 11:22:02;;;;;;;5.32;2.80;;;20.00;99.90;;;;;;5020236;28;20017;-69
2021/08/06 11:24:35;;;;;;;4.85;2.55;;;20.10;99.90;;;;;;5052856;28;20029;-69
2021/08/06 11:27:03;;;;;;;4.93;2.50;;;20.30;99.90;;;;;;5035815;28;20060;-69
2021/08/06 11:29:32;;;;;;;3.40;1.90;;;20.40;99.90;;;;;;5051416;28;20064;-70
2021/08/06 11:31:59;;;;;;;5.63;2.20;;;20.30;99.90;;;;;;5051526;28;20076;-68
2021/08/06 11:34:24;;;;;;;4.55;2.08;;;20.20;99.90;;;;;;5016459;28;20029;-68
2021/08/06 11:37:00;;;;;;;5.72;2.40;;;20.30;99.90;;;;;;5020151;28;20473;-68
2021/08/06 11:39:25;;;;;;;5.82;2.42;;;20.20;99.90;;;;;;5050733;28;20184;-69
2021/08/06 11:41:53;;;;;;;5.20;2.40;;;20.10;99.90;;;;;;5020072;28;20494;-68
2021/08/06 11:44:21;;;;;;;4.95;2.47;;;20.10;99.90;;;;;;5051663;28;20420;-68
2021/08/06 11:46:51;;;;;;;5.10;2.30;;;20.10;99.90;;;;;;5020302;28;20120;-69
2021/08/06 11:49:17;;;;;;;5.53;2.50;;;20.00;99.90;;;;;;5041240;28;20038;-69
2021/08/06 11:51:52;;;;;;;5.07;2.20;;;20.10;99.90;;;;;;5035295;28;20348;-69
2021/08/06 11:54:24;;;;;;;4.95;2.20;;;19.90;99.90;;;;;;5014739;28;20052;-69
2021/08/06 11:56:59;;;;;;;5.82;2.40;;;19.90;99.90;;;;;;5032756;28;21994;-69
2021/08/06 11:59:27;;;;;;;4.28;2.10;;;20.10;99.90;;;;;;5020076;28;20045;-69
2021/08/06 12:02:15;;;;;;;5.95;2.30;;;20.20;99.90;;;;;;5015805;28;20471;-71
2021/08/06 12:04:40;;;;;;;5.45;2.38;;;20.20;99.90;;;;;;5029848;28;20466;-67
2021/08/06 12:07:06;;;;;;;14.57;8.25;;;20.30;99.90;;;;;;5019075;28;20029;-69
2021/08/06 12:09:32;;;;;;;4.28;2.13;;;20.30;99.90;;;;;;5017864;28;20048;-69
2021/08/06 12:11:57;;;;;;;10.15;6.63;;;20.30;99.90;;;;;;5019198;28;20541;-69
2021/08/06 12:14:27;;;;;;;5.10;2.35;;;20.50;99.90;;;;;;5019148;28;20479;-69
2021/08/06 12:16:53;;;;;;;3.88;1.80;;;20.60;99.90;;;;;;5016988;28;20941;-68
2021/08/06 12:19:19;;;;;;;3.65;1.77;;;20.50;99.90;;;;;;5007452;28;20037;-70
2021/08/06 12:21:46;;;;;;;3.65;1.80;;;20.40;99.90;;;;;;5014947;28;20431;-68
2021/08/06 12:24:15;;;;;;;4.47;1.73;;;20.30;99.90;;;;;;5018358;28;20025;-69
2021/08/06 12:26:59;;;;;;;4.57;1.63;;;20.40;99.90;;;;;;5018990;28;20027;-69
2021/08/06 12:29:32;;;;;;;3.08;1.52;;;20.40;99.90;;;;;;5004064;28;20896;-69
2021/08/06 12:32:04;;;;;;;3.92;1.60;;;20.30;99.90;;;;;;5001242;28;20029;-69
2021/08/06 12:34:32;;;;;;;4.78;2.00;;;20.20;99.90;;;;;;5018574;28;21616;-69
2021/08/06 12:37:11;;;;;;;3.22;1.60;;;20.20;99.90;;;;;;5022270;28;21888;-68
2021/08/06 12:39:46;;;;;;;5.28;1.55;;;20.10;99.90;;;;;;5013463;28;20125;-67
2021/08/06 12:42:20;;;;;;;4.50;1.60;;;20.00;99.90;;;;;;5033593;28;20025;-68
2021/08/06 12:44:57;;;;;;;4.03;1.55;;;19.90;99.90;;;;;;5049931;28;20426;-67